sensor_id;sensor_type;location;lat;lon;timestamp;P1;durP1;ratioP1;P2;durP2;ratioP2
28796;SDS011;24974;54.444;18.560;2023-02-15T00:01:39;19.77;;;13.65;;
28796;SDS011;24974;54.444;18.560;2023-02-15T00:04:14;16.52;;;12.70;;
28796;SDS011;24974;54.444;18.560;2023-02-15T00:06:47;21.35;;;14.25;;
28796;SDS011;24974;54.444;18.560;2023-02-15T00:09:18;23.30;;;14.60;;
28796;SDS011;24974;54.444;18.560;2023-02-15T00:11:49;21.98;;;14.73;;
28796;SDS011;24974;54.444;18.560;2023-02-15T00:14:21;23.08;;;15.27;;
28796;SDS011;24974;54.444;18.560;2023-02-15T00:16:53;23.05;;;16.08;;
28796;SDS011;24974;54.444;18.560;2023-02-15T00:19:25;24.80;;;14.38;;
28796;SDS011;24974;54.444;18.560;2023-02-15T00:21:56;23.30;;;14.80;;
28796;SDS011;24974;54.444;18.560;2023-02-15T00:24:27;28.85;;;15.90;;
28796;SDS011;24974;54.444;18.560;2023-02-15T00:26:58;20.65;;;14.32;;
28796;SDS011;24974;54.444;18.560;2023-02-15T00:29:29;23.05;;;13.82;;
28796;SDS011;24974;54.444;18.560;2023-02-15T00:32:00;22.55;;;14.55;;
28796;SDS011;24974;54.444;18.560;2023-02-15T00:34:30;22.70;;;15.80;;
28796;SDS011;24974;54.444;18.560;2023-02-15T00:37:01;21.63;;;14.93;;
28796;SDS011;24974;54.444;18.560;2023-02-15T00:39:32;20.33;;;14.68;;
28796;SDS011;24974;54.444;18.560;2023-02-15T00:42:03;22.05;;;13.98;;
28796;SDS011;24974;54.444;18.560;2023-02-15T00:44:34;21.65;;;14.85;;
28796;SDS011;24974;54.444;18.560;2023-02-15T00:47:05;16.85;;;13.73;;
28796;SDS011;24974;54.444;18.560;2023-02-15T00:49:37;19.85;;;14.90;;
28796;SDS011;24974;54.444;18.560;2023-02-15T00:52:08;20.17;;;14.80;;
28796;SDS011;24974;54.444;18.560;2023-02-15T00:54:39;20.58;;;16.15;;
28796;SDS011;24974;54.444;18.560;2023-02-15T00:57:10;23.33;;;16.77;;
28796;SDS011;24974;54.444;18.560;2023-02-15T00:59:41;25.08;;;16.80;;
28796;SDS011;24974;54.444;18.560;2023-02-15T01:02:12;28.30;;;17.02;;
28796;SDS011;24974;54.444;18.560;2023-02-15T01:04:43;24.52;;;16.25;;
28796;SDS011;24974;54.444;18.560;2023-02-15T01:07:14;19.77;;;16.38;;
28796;SDS011;24974;54.444;18.560;2023-02-15T01:09:45;20.45;;;15.75;;
28796;SDS011;24974;54.444;18.560;2023-02-15T01:12:16;22.27;;;16.60;;
28796;SDS011;24974;54.444;18.560;2023-02-15T01:14:47;25.75;;;16.77;;
28796;SDS011;24974;54.444;18.560;2023-02-15T01:17:17;24.58;;;15.68;;
28796;SDS011;24974;54.444;18.560;2023-02-15T01:19:48;22.08;;;16.55;;
28796;SDS011;24974;54.444;18.560;2023-02-15T01:22:19;27.27;;;16.98;;
28796;SDS011;24974;54.444;18.560;2023-02-15T06:42:45;41.83;;;24.85;;
28796;SDS011;24974;54.444;18.560;2023-02-15T06:45:17;39.03;;;23.73;;
28796;SDS011;24974;54.444;18.560;2023-02-15T06:47:47;36.45;;;22.80;;
28796;SDS011;24974;54.444;18.560;2023-02-15T06:50:19;32.50;;;21.63;;
28796;SDS011;24974;54.444;18.560;2023-02-15T06:52:54;34.33;;;20.63;;
28796;SDS011;24974;54.444;18.560;2023-02-15T06:55:26;38.50;;;21.20;;
28796;SDS011;24974;54.444;18.560;2023-02-15T06:57:57;35.78;;;20.13;;
28796;SDS011;24974;54.444;18.560;2023-02-15T07:00:28;34.00;;;19.60;;
28796;SDS011;24974;54.444;18.560;2023-02-15T07:02:59;32.55;;;19.10;;
28796;SDS011;24974;54.444;18.560;2023-02-15T07:05:32;29.67;;;18.25;;
28796;SDS011;24974;54.444;18.560;2023-02-15T07:08:04;27.02;;;17.73;;
28796;SDS011;24974;54.444;18.560;2023-02-15T07:10:35;23.35;;;17.52;;
28796;SDS011;24974;54.444;18.560;2023-02-15T07:13:06;44.55;;;19.30;;
28796;SDS011;24974;54.444;18.560;2023-02-15T07:15:37;41.30;;;19.15;;
28796;SDS011;24974;54.444;18.560;2023-02-15T07:18:07;31.30;;;18.23;;
28796;SDS011;24974;54.444;18.560;2023-02-15T07:20:39;33.72;;;18.05;;
28796;SDS011;24974;54.444;18.560;2023-02-15T07:23:12;23.38;;;16.80;;
28796;SDS011;24974;54.444;18.560;2023-02-15T07:25:42;30.13;;;17.98;;
28796;SDS011;24974;54.444;18.560;2023-02-15T07:28:13;28.35;;;17.60;;
28796;SDS011;24974;54.444;18.560;2023-02-15T07:30:46;34.22;;;19.23;;
28796;SDS011;24974;54.444;18.560;2023-02-15T07:33:17;31.75;;;19.25;;
28796;SDS011;24974;54.444;18.560;2023-02-15T07:35:55;24.13;;;16.70;;
28796;SDS011;24974;54.444;18.560;2023-02-15T07:38:35;26.75;;;17.65;;
28796;SDS011;24974;54.444;18.560;2023-02-15T07:41:08;28.35;;;17.38;;
28796;SDS011;24974;54.444;18.560;2023-02-15T07:43:42;23.73;;;16.88;;
28796;SDS011;24974;54.444;18.560;2023-02-15T07:46:14;27.08;;;17.52;;
28796;SDS011;24974;54.444;18.560;2023-02-15T07:48:47;29.92;;;16.92;;
28796;SDS011;24974;54.444;18.560;2023-02-15T07:51:18;29.20;;;17.58;;
28796;SDS011;24974;54.444;18.560;2023-02-15T07:53:49;30.42;;;17.80;;
28796;SDS011;24974;54.444;18.560;2023-02-15T07:56:21;25.48;;;18.13;;
28796;SDS011;24974;54.444;18.560;2023-02-15T07:58:52;30.92;;;17.10;;
28796;SDS011;24974;54.444;18.560;2023-02-15T08:01:29;27.90;;;16.23;;
28796;SDS011;24974;54.444;18.560;2023-02-15T08:04:03;24.83;;;16.98;;
28796;SDS011;24974;54.444;18.560;2023-02-15T08:06:36;27.73;;;17.48;;
28796;SDS011;24974;54.444;18.560;2023-02-15T08:09:08;22.20;;;15.93;;
28796;SDS011;24974;54.444;18.560;2023-02-15T08:11:39;25.35;;;17.00;;
28796;SDS011;24974;54.444;18.560;2023-02-15T08:14:14;30.48;;;17.23;;
28796;SDS011;24974;54.444;18.560;2023-02-15T08:16:51;27.30;;;17.65;;
28796;SDS011;24974;54.444;18.560;2023-02-15T08:19:24;22.40;;;15.38;;
28796;SDS011;24974;54.444;18.560;2023-02-15T08:21:57;25.60;;;15.63;;
28796;SDS011;24974;54.444;18.560;2023-02-15T08:24:31;26.75;;;17.45;;
28796;SDS011;24974;54.444;18.560;2023-02-15T08:27:04;34.75;;;16.67;;
28796;SDS011;24974;54.444;18.560;2023-02-15T08:29:37;22.63;;;15.77;;
28796;SDS011;24974;54.444;18.560;2023-02-15T08:32:10;23.52;;;14.88;;
28796;SDS011;24974;54.444;18.560;2023-02-15T08:34:42;25.02;;;15.73;;
28796;SDS011;24974;54.444;18.560;2023-02-15T08:37:14;24.15;;;16.50;;
28796;SDS011;24974;54.444;18.560;2023-02-15T08:39:44;20.88;;;15.65;;
28796;SDS011;24974;54.444;18.560;2023-02-15T08:42:16;23.63;;;15.80;;
28796;SDS011;24974;54.444;18.560;2023-02-15T08:44:47;24.80;;;16.60;;
28796;SDS011;24974;54.444;18.560;2023-02-15T08:47:21;22.40;;;15.00;;
28796;SDS011;24974;54.444;18.560;2023-02-15T08:49:52;28.88;;;16.83;;
28796;SDS011;24974;54.444;18.560;2023-02-15T08:52:23;23.98;;;15.40;;
28796;SDS011;24974;54.444;18.560;2023-02-15T08:54:54;20.45;;;15.25;;
28796;SDS011;24974;54.444;18.560;2023-02-15T08:57:25;24.38;;;14.65;;
28796;SDS011;24974;54.444;18.560;2023-02-15T08:59:58;21.70;;;17.05;;
28796;SDS011;24974;54.444;18.560;2023-02-15T09:02:30;21.75;;;15.60;;
28796;SDS011;24974;54.444;18.560;2023-02-15T09:05:01;27.17;;;16.67;;
28796;SDS011;24974;54.444;18.560;2023-02-15T09:07:32;25.13;;;18.75;;
28796;SDS011;24974;54.444;18.560;2023-02-15T09:10:03;25.10;;;17.85;;
28796;SDS011;24974;54.444;18.560;2023-02-15T09:12:34;28.00;;;18.95;;
28796;SDS011;24974;54.444;18.560;2023-02-15T09:15:05;24.00;;;17.85;;
28796;SDS011;24974;54.444;18.560;2023-02-15T09:17:36;26.25;;;18.92;;
28796;SDS011;24974;54.444;18.560;2023-02-15T09:20:07;25.88;;;18.05;;
28796;SDS011;24974;54.444;18.560;2023-02-15T09:22:39;28.55;;;20.30;;
28796;SDS011;24974;54.444;18.560;2023-02-15T09:25:09;28.70;;;21.30;;
28796;SDS011;24974;54.444;18.560;2023-02-15T09:27:40;28.48;;;19.83;;
28796;SDS011;24974;54.444;18.560;2023-02-15T09:30:11;33.75;;;21.35;;
28796;SDS011;24974;54.444;18.560;2023-02-15T09:32:43;28.63;;;20.85;;
28796;SDS011;24974;54.444;18.560;2023-02-15T09:35:16;33.92;;;22.70;;
28796;SDS011;24974;54.444;18.560;2023-02-15T09:37:47;30.23;;;21.60;;
28796;SDS011;24974;54.444;18.560;2023-02-15T09:43:21;35.42;;;21.67;;
28796;SDS011;24974;54.444;18.560;2023-02-15T09:46:09;32.53;;;21.58;;
28796;SDS011;24974;54.444;18.560;2023-02-15T10:07:00;35.25;;;22.27;;
28796;SDS011;24974;54.444;18.560;2023-02-15T10:16:26;28.83;;;21.20;;
28796;SDS011;24974;54.444;18.560;2023-02-15T10:22:22;33.28;;;23.08;;
28796;SDS011;24974;54.444;18.560;2023-02-15T10:27:58;40.42;;;22.55;;
28796;SDS011;24974;54.444;18.560;2023-02-15T10:30:56;32.30;;;22.08;;
28796;SDS011;24974;54.444;18.560;2023-02-15T10:39:08;34.92;;;22.85;;
28796;SDS011;24974;54.444;18.560;2023-02-15T10:41:53;35.30;;;22.05;;
28796;SDS011;24974;54.444;18.560;2023-02-15T10:53:20;30.52;;;22.98;;
28796;SDS011;24974;54.444;18.560;2023-02-15T10:56:17;37.75;;;23.88;;
28796;SDS011;24974;54.444;18.560;2023-02-15T11:01:58;37.13;;;25.48;;
28796;SDS011;24974;54.444;18.560;2023-02-15T11:12:45;37.42;;;26.55;;
28796;SDS011;24974;54.444;18.560;2023-02-15T11:21:22;37.97;;;25.50;;
28796;SDS011;24974;54.444;18.560;2023-02-15T11:24:13;38.67;;;27.23;;
28796;SDS011;24974;54.444;18.560;2023-02-15T11:32:35;38.72;;;28.40;;
28796;SDS011;24974;54.444;18.560;2023-02-15T11:37:41;41.40;;;28.42;;
28796;SDS011;24974;54.444;18.560;2023-02-15T11:40:35;41.83;;;28.88;;
28796;SDS011;24974;54.444;18.560;2023-02-15T11:43:21;41.33;;;28.92;;
28796;SDS011;24974;54.444;18.560;2023-02-15T11:46:03;43.65;;;28.35;;
28796;SDS011;24974;54.444;18.560;2023-02-15T11:48:35;39.28;;;28.13;;
28796;SDS011;24974;54.444;18.560;2023-02-15T11:51:09;39.20;;;28.77;;
28796;SDS011;24974;54.444;18.560;2023-02-15T11:53:46;41.13;;;29.77;;
28796;SDS011;24974;54.444;18.560;2023-02-15T11:56:22;39.92;;;29.58;;
28796;SDS011;24974;54.444;18.560;2023-02-15T11:59:00;43.67;;;29.60;;
28796;SDS011;24974;54.444;18.560;2023-02-15T12:01:38;42.00;;;27.63;;
28796;SDS011;24974;54.444;18.560;2023-02-15T12:04:20;43.78;;;29.92;;
28796;SDS011;24974;54.444;18.560;2023-02-15T12:07:01;43.92;;;29.02;;
28796;SDS011;24974;54.444;18.560;2023-02-15T12:12:31;44.28;;;28.80;;
28796;SDS011;24974;54.444;18.560;2023-02-15T12:20:30;42.90;;;31.10;;
28796;SDS011;24974;54.444;18.560;2023-02-15T12:23:03;44.58;;;30.30;;
28796;SDS011;24974;54.444;18.560;2023-02-15T12:25:43;42.15;;;30.38;;
28796;SDS011;24974;54.444;18.560;2023-02-15T12:31:24;37.13;;;26.45;;
28796;SDS011;24974;54.444;18.560;2023-02-15T12:37:07;39.47;;;28.40;;
28796;SDS011;24974;54.444;18.560;2023-02-15T12:39:52;43.00;;;29.60;;
28796;SDS011;24974;54.444;18.560;2023-02-15T12:42:40;44.88;;;29.65;;
28796;SDS011;24974;54.444;18.560;2023-02-15T12:50:47;43.38;;;29.85;;
28796;SDS011;24974;54.444;18.560;2023-02-15T12:53:21;39.83;;;29.98;;
28796;SDS011;24974;54.444;18.560;2023-02-15T12:56:04;40.70;;;29.98;;
28796;SDS011;24974;54.444;18.560;2023-02-15T12:58:37;48.07;;;31.10;;
28796;SDS011;24974;54.444;18.560;2023-02-15T13:01:14;38.83;;;28.20;;
28796;SDS011;24974;54.444;18.560;2023-02-15T13:03:55;40.80;;;28.85;;
28796;SDS011;24974;54.444;18.560;2023-02-15T13:06:30;42.28;;;28.73;;
28796;SDS011;24974;54.444;18.560;2023-02-15T13:09:08;39.15;;;28.13;;
28796;SDS011;24974;54.444;18.560;2023-02-15T13:11:55;39.72;;;29.17;;
28796;SDS011;24974;54.444;18.560;2023-02-15T13:14:31;39.42;;;29.60;;
28796;SDS011;24974;54.444;18.560;2023-02-15T13:17:07;41.83;;;30.38;;
28796;SDS011;24974;54.444;18.560;2023-02-15T13:19:52;46.30;;;30.63;;
28796;SDS011;24974;54.444;18.560;2023-02-15T13:22:38;43.00;;;28.57;;
28796;SDS011;24974;54.444;18.560;2023-02-15T13:25:20;36.67;;;28.03;;
28796;SDS011;24974;54.444;18.560;2023-02-15T13:27:54;39.03;;;29.80;;
28796;SDS011;24974;54.444;18.560;2023-02-15T13:30:38;41.35;;;29.02;;
28796;SDS011;24974;54.444;18.560;2023-02-15T13:36:08;40.00;;;26.88;;
28796;SDS011;24974;54.444;18.560;2023-02-15T13:38:58;43.33;;;29.55;;
28796;SDS011;24974;54.444;18.560;2023-02-15T13:41:56;38.70;;;26.42;;
28796;SDS011;24974;54.444;18.560;2023-02-15T13:44:57;37.20;;;26.77;;
28796;SDS011;24974;54.444;18.560;2023-02-15T13:47:56;38.83;;;26.50;;
28796;SDS011;24974;54.444;18.560;2023-02-15T13:57:05;38.88;;;25.52;;
28796;SDS011;24974;54.444;18.560;2023-02-15T14:17:29;33.45;;;22.50;;
28796;SDS011;24974;54.444;18.560;2023-02-15T14:23:38;37.28;;;25.52;;
28796;SDS011;24974;54.444;18.560;2023-02-15T14:35:14;38.03;;;25.95;;
28796;SDS011;24974;54.444;18.560;2023-02-15T14:49:08;35.80;;;26.58;;
28796;SDS011;24974;54.444;18.560;2023-02-15T15:04:41;37.92;;;28.08;;
28796;SDS011;24974;54.444;18.560;2023-02-15T15:07:27;41.72;;;27.92;;
28796;SDS011;24974;54.444;18.560;2023-02-15T15:12:52;36.45;;;28.10;;
28796;SDS011;24974;54.444;18.560;2023-02-15T15:18:01;40.88;;;30.35;;
28796;SDS011;24974;54.444;18.560;2023-02-15T15:20:38;49.75;;;29.00;;
28796;SDS011;24974;54.444;18.560;2023-02-15T15:25:51;41.42;;;29.67;;
28796;SDS011;24974;54.444;18.560;2023-02-15T15:40:28;44.47;;;31.35;;
28796;SDS011;24974;54.444;18.560;2023-02-15T15:49:08;46.13;;;33.55;;
28796;SDS011;24974;54.444;18.560;2023-02-15T15:51:43;49.75;;;33.92;;
28796;SDS011;24974;54.444;18.560;2023-02-15T15:54:17;72.53;;;45.05;;
28796;SDS011;24974;54.444;18.560;2023-02-15T15:56:57;67.00;;;41.42;;
28796;SDS011;24974;54.444;18.560;2023-02-15T15:59:32;54.83;;;37.55;;
28796;SDS011;24974;54.444;18.560;2023-02-15T16:02:05;54.58;;;38.70;;
28796;SDS011;24974;54.444;18.560;2023-02-15T16:04:37;56.60;;;38.17;;
28796;SDS011;24974;54.444;18.560;2023-02-15T16:09:59;63.70;;;40.80;;
28796;SDS011;24974;54.444;18.560;2023-02-15T16:12:34;67.30;;;42.38;;
28796;SDS011;24974;54.444;18.560;2023-02-15T16:15:19;65.63;;;42.42;;
28796;SDS011;24974;54.444;18.560;2023-02-15T16:17:54;69.05;;;43.88;;
28796;SDS011;24974;54.444;18.560;2023-02-15T16:20:31;67.88;;;43.60;;
28796;SDS011;24974;54.444;18.560;2023-02-15T16:23:12;67.82;;;44.13;;
28796;SDS011;24974;54.444;18.560;2023-02-15T16:28:26;70.53;;;45.58;;
28796;SDS011;24974;54.444;18.560;2023-02-15T16:31:13;76.88;;;45.67;;
28796;SDS011;24974;54.444;18.560;2023-02-15T16:33:45;82.45;;;48.05;;
28796;SDS011;24974;54.444;18.560;2023-02-15T16:36:27;76.40;;;48.58;;
28796;SDS011;24974;54.444;18.560;2023-02-15T16:41:29;74.60;;;47.75;;
28796;SDS011;24974;54.444;18.560;2023-02-15T16:44:03;73.85;;;48.38;;
28796;SDS011;24974;54.444;18.560;2023-02-15T16:46:40;69.78;;;41.72;;
28796;SDS011;24974;54.444;18.560;2023-02-15T16:49:15;72.22;;;48.75;;
28796;SDS011;24974;54.444;18.560;2023-02-15T16:51:55;70.38;;;47.13;;
28796;SDS011;24974;54.444;18.560;2023-02-15T16:54:29;75.00;;;45.95;;
28796;SDS011;24974;54.444;18.560;2023-02-15T16:57:02;68.25;;;46.25;;
28796;SDS011;24974;54.444;18.560;2023-02-15T16:59:34;76.38;;;45.95;;
28796;SDS011;24974;54.444;18.560;2023-02-15T17:02:15;73.55;;;46.60;;
28796;SDS011;24974;54.444;18.560;2023-02-15T17:07:38;81.05;;;49.90;;
28796;SDS011;24974;54.444;18.560;2023-02-15T17:13:10;85.35;;;50.75;;
28796;SDS011;24974;54.444;18.560;2023-02-15T17:18:44;84.68;;;51.13;;
28796;SDS011;24974;54.444;18.560;2023-02-15T17:21:20;76.72;;;49.67;;
28796;SDS011;24974;54.444;18.560;2023-02-15T17:24:01;86.22;;;51.30;;
28796;SDS011;24974;54.444;18.560;2023-02-15T17:26:34;87.88;;;52.33;;
28796;SDS011;24974;54.444;18.560;2023-02-15T17:29:50;89.03;;;55.80;;
28796;SDS011;24974;54.444;18.560;2023-02-15T17:32:05;90.97;;;56.63;;
28796;SDS011;24974;54.444;18.560;2023-02-15T17:42:47;85.47;;;53.83;;
28796;SDS011;24974;54.444;18.560;2023-02-15T17:45:18;88.63;;;55.05;;
28796;SDS011;24974;54.444;18.560;2023-02-15T17:47:50;96.65;;;57.95;;
28796;SDS011;24974;54.444;18.560;2023-02-15T17:50:22;95.05;;;61.05;;
28796;SDS011;24974;54.444;18.560;2023-02-15T17:52:55;91.40;;;56.42;;
28796;SDS011;24974;54.444;18.560;2023-02-15T17:55:27;90.40;;;55.53;;
28796;SDS011;24974;54.444;18.560;2023-02-15T17:58:14;90.32;;;56.05;;
28796;SDS011;24974;54.444;18.560;2023-02-15T18:00:52;88.38;;;56.58;;
28796;SDS011;24974;54.444;18.560;2023-02-15T18:03:48;87.57;;;54.70;;
28796;SDS011;24974;54.444;18.560;2023-02-15T18:06:40;93.32;;;54.55;;
28796;SDS011;24974;54.444;18.560;2023-02-15T18:09:31;89.18;;;54.67;;
28796;SDS011;24974;54.444;18.560;2023-02-15T18:12:21;91.85;;;55.55;;
28796;SDS011;24974;54.444;18.560;2023-02-15T18:14:55;88.88;;;51.35;;
28796;SDS011;24974;54.444;18.560;2023-02-15T18:17:28;87.53;;;54.95;;
28796;SDS011;24974;54.444;18.560;2023-02-15T18:20:01;89.13;;;55.63;;
28796;SDS011;24974;54.444;18.560;2023-02-15T18:22:36;92.30;;;56.40;;
28796;SDS011;24974;54.444;18.560;2023-02-15T18:25:11;91.63;;;53.80;;
28796;SDS011;24974;54.444;18.560;2023-02-15T18:27:43;92.05;;;55.95;;
28796;SDS011;24974;54.444;18.560;2023-02-15T18:30:15;92.65;;;56.38;;
28796;SDS011;24974;54.444;18.560;2023-02-15T18:32:49;88.55;;;55.13;;
28796;SDS011;24974;54.444;18.560;2023-02-15T18:35:23;90.00;;;55.60;;
28796;SDS011;24974;54.444;18.560;2023-02-15T18:38:00;93.28;;;57.78;;
28796;SDS011;24974;54.444;18.560;2023-02-15T18:40:31;100.50;;;59.03;;
28796;SDS011;24974;54.444;18.560;2023-02-15T18:43:02;96.15;;;57.10;;
28796;SDS011;24974;54.444;18.560;2023-02-15T18:45:33;102.22;;;58.75;;
28796;SDS011;24974;54.444;18.560;2023-02-15T18:48:06;94.25;;;56.03;;
28796;SDS011;24974;54.444;18.560;2023-02-15T18:50:39;99.90;;;58.67;;
28796;SDS011;24974;54.444;18.560;2023-02-15T18:53:14;104.95;;;61.30;;
28796;SDS011;24974;54.444;18.560;2023-02-15T18:55:48;93.95;;;58.53;;
28796;SDS011;24974;54.444;18.560;2023-02-15T18:58:20;105.65;;;60.55;;
28796;SDS011;24974;54.444;18.560;2023-02-15T19:00:54;107.18;;;63.53;;
28796;SDS011;24974;54.444;18.560;2023-02-15T19:03:25;101.40;;;61.60;;
28796;SDS011;24974;54.444;18.560;2023-02-15T19:05:56;98.78;;;59.05;;
28796;SDS011;24974;54.444;18.560;2023-02-15T19:08:27;96.18;;;58.95;;
28796;SDS011;24974;54.444;18.560;2023-02-15T19:10:58;99.85;;;57.42;;
28796;SDS011;24974;54.444;18.560;2023-02-15T19:13:29;99.63;;;60.15;;
28796;SDS011;24974;54.444;18.560;2023-02-15T19:16:00;97.72;;;59.22;;
28796;SDS011;24974;54.444;18.560;2023-02-15T19:18:31;105.57;;;61.20;;
28796;SDS011;24974;54.444;18.560;2023-02-15T19:21:02;100.35;;;60.80;;
28796;SDS011;24974;54.444;18.560;2023-02-15T19:23:34;99.00;;;61.15;;
28796;SDS011;24974;54.444;18.560;2023-02-15T19:26:06;105.82;;;61.42;;
28796;SDS011;24974;54.444;18.560;2023-02-15T19:28:36;97.80;;;60.22;;
28796;SDS011;24974;54.444;18.560;2023-02-15T19:31:11;105.55;;;63.00;;
28796;SDS011;24974;54.444;18.560;2023-02-15T19:33:43;103.13;;;59.80;;
28796;SDS011;24974;54.444;18.560;2023-02-15T19:36:15;102.70;;;58.83;;
28796;SDS011;24974;54.444;18.560;2023-02-15T19:38:51;102.55;;;60.33;;
28796;SDS011;24974;54.444;18.560;2023-02-15T19:41:28;108.25;;;60.17;;
28796;SDS011;24974;54.444;18.560;2023-02-15T19:44:02;108.88;;;61.55;;
28796;SDS011;24974;54.444;18.560;2023-02-15T19:46:33;99.55;;;57.65;;
28796;SDS011;24974;54.444;18.560;2023-02-15T19:49:04;113.18;;;62.20;;
28796;SDS011;24974;54.444;18.560;2023-02-15T19:51:35;112.80;;;66.15;;
28796;SDS011;24974;54.444;18.560;2023-02-15T19:54:17;108.53;;;62.95;;
28796;SDS011;24974;54.444;18.560;2023-02-15T19:56:52;110.85;;;66.90;;
28796;SDS011;24974;54.444;18.560;2023-02-15T19:59:31;116.65;;;67.80;;
28796;SDS011;24974;54.444;18.560;2023-02-15T20:02:03;110.90;;;65.00;;
28796;SDS011;24974;54.444;18.560;2023-02-15T20:04:34;110.03;;;60.63;;
28796;SDS011;24974;54.444;18.560;2023-02-15T20:07:06;109.43;;;64.22;;
28796;SDS011;24974;54.444;18.560;2023-02-15T20:09:48;112.93;;;63.00;;
28796;SDS011;24974;54.444;18.560;2023-02-15T20:12:23;109.80;;;60.92;;
28796;SDS011;24974;54.444;18.560;2023-02-15T20:14:55;128.00;;;68.38;;
28796;SDS011;24974;54.444;18.560;2023-02-15T20:17:27;123.68;;;66.53;;
28796;SDS011;24974;54.444;18.560;2023-02-15T20:19:58;122.88;;;65.28;;
28796;SDS011;24974;54.444;18.560;2023-02-15T20:22:29;123.75;;;62.00;;
28796;SDS011;24974;54.444;18.560;2023-02-15T20:25:00;118.50;;;61.67;;
28796;SDS011;24974;54.444;18.560;2023-02-15T20:27:31;118.65;;;62.90;;
28796;SDS011;24974;54.444;18.560;2023-02-15T20:30:05;129.82;;;67.68;;
28796;SDS011;24974;54.444;18.560;2023-02-15T20:32:44;119.35;;;64.68;;
28796;SDS011;24974;54.444;18.560;2023-02-15T20:35:17;124.10;;;66.45;;
28796;SDS011;24974;54.444;18.560;2023-02-15T20:37:50;125.82;;;67.43;;
28796;SDS011;24974;54.444;18.560;2023-02-15T20:40:24;128.85;;;68.53;;
28796;SDS011;24974;54.444;18.560;2023-02-15T20:42:57;129.55;;;67.30;;
28796;SDS011;24974;54.444;18.560;2023-02-15T20:45:29;136.63;;;73.50;;
28796;SDS011;24974;54.444;18.560;2023-02-15T20:48:01;126.80;;;66.00;;
28796;SDS011;24974;54.444;18.560;2023-02-15T20:50:33;130.65;;;69.45;;
28796;SDS011;24974;54.444;18.560;2023-02-15T20:53:04;125.22;;;65.10;;
28796;SDS011;24974;54.444;18.560;2023-02-15T20:55:41;137.38;;;69.78;;
28796;SDS011;24974;54.444;18.560;2023-02-15T21:00:57;134.60;;;71.68;;
28796;SDS011;24974;54.444;18.560;2023-02-15T21:03:29;136.77;;;69.80;;
28796;SDS011;24974;54.444;18.560;2023-02-15T21:06:01;135.55;;;70.22;;
28796;SDS011;24974;54.444;18.560;2023-02-15T21:08:32;135.07;;;67.65;;
28796;SDS011;24974;54.444;18.560;2023-02-15T21:11:11;136.73;;;71.32;;
28796;SDS011;24974;54.444;18.560;2023-02-15T21:13:49;131.25;;;65.63;;
28796;SDS011;24974;54.444;18.560;2023-02-15T21:16:20;126.32;;;64.70;;
28796;SDS011;24974;54.444;18.560;2023-02-15T21:18:51;136.43;;;68.75;;
28796;SDS011;24974;54.444;18.560;2023-02-15T21:21:22;142.00;;;71.65;;
28796;SDS011;24974;54.444;18.560;2023-02-15T21:23:53;140.00;;;70.95;;
28796;SDS011;24974;54.444;18.560;2023-02-15T21:26:24;138.57;;;69.28;;
28796;SDS011;24974;54.444;18.560;2023-02-15T21:28:55;137.13;;;69.97;;
28796;SDS011;24974;54.444;18.560;2023-02-15T21:31:26;146.05;;;73.40;;
28796;SDS011;24974;54.444;18.560;2023-02-15T21:33:58;149.05;;;76.65;;
28796;SDS011;24974;54.444;18.560;2023-02-15T21:36:29;146.82;;;75.82;;
28796;SDS011;24974;54.444;18.560;2023-02-15T21:39:00;142.10;;;73.15;;
28796;SDS011;24974;54.444;18.560;2023-02-15T21:41:31;153.93;;;74.75;;
28796;SDS011;24974;54.444;18.560;2023-02-15T21:44:22;146.10;;;75.80;;
28796;SDS011;24974;54.444;18.560;2023-02-15T21:47:19;151.23;;;76.03;;
28796;SDS011;24974;54.444;18.560;2023-02-15T21:50:16;158.82;;;80.13;;
28796;SDS011;24974;54.444;18.560;2023-02-15T21:53:09;154.35;;;77.28;;
28796;SDS011;24974;54.444;18.560;2023-02-15T21:55:42;158.13;;;78.45;;
28796;SDS011;24974;54.444;18.560;2023-02-15T21:58:17;161.60;;;78.68;;
28796;SDS011;24974;54.444;18.560;2023-02-15T22:00:50;152.48;;;77.28;;
28796;SDS011;24974;54.444;18.560;2023-02-15T22:03:30;121.47;;;61.95;;
28796;SDS011;24974;54.444;18.560;2023-02-15T22:06:03;153.27;;;79.30;;
28796;SDS011;24974;54.444;18.560;2023-02-15T22:08:34;149.50;;;74.38;;
28796;SDS011;24974;54.444;18.560;2023-02-15T22:11:09;142.77;;;75.22;;
28796;SDS011;24974;54.444;18.560;2023-02-15T22:13:42;159.18;;;83.38;;
28796;SDS011;24974;54.444;18.560;2023-02-15T22:16:15;160.88;;;81.53;;
28796;SDS011;24974;54.444;18.560;2023-02-15T22:18:48;142.38;;;70.68;;
28796;SDS011;24974;54.444;18.560;2023-02-15T22:21:19;146.88;;;78.25;;
28796;SDS011;24974;54.444;18.560;2023-02-15T22:23:50;163.65;;;80.18;;
28796;SDS011;24974;54.444;18.560;2023-02-15T22:26:22;145.02;;;73.05;;
28796;SDS011;24974;54.444;18.560;2023-02-15T22:28:55;158.60;;;79.88;;
28796;SDS011;24974;54.444;18.560;2023-02-15T22:31:26;151.70;;;73.75;;
28796;SDS011;24974;54.444;18.560;2023-02-15T22:33:57;157.38;;;78.75;;
28796;SDS011;24974;54.444;18.560;2023-02-15T22:36:32;152.90;;;80.57;;
28796;SDS011;24974;54.444;18.560;2023-02-15T22:39:03;156.95;;;81.32;;
28796;SDS011;24974;54.444;18.560;2023-02-15T22:41:34;152.35;;;77.35;;
28796;SDS011;24974;54.444;18.560;2023-02-15T22:44:05;164.43;;;79.53;;
28796;SDS011;24974;54.444;18.560;2023-02-15T22:46:40;152.93;;;78.75;;
28796;SDS011;24974;54.444;18.560;2023-02-15T22:49:12;158.55;;;80.97;;
28796;SDS011;24974;54.444;18.560;2023-02-15T22:51:46;152.88;;;76.72;;
28796;SDS011;24974;54.444;18.560;2023-02-15T22:54:21;161.88;;;80.20;;
28796;SDS011;24974;54.444;18.560;2023-02-15T22:56:52;164.15;;;81.05;;
28796;SDS011;24974;54.444;18.560;2023-02-15T22:59:24;161.98;;;81.88;;
28796;SDS011;24974;54.444;18.560;2023-02-15T23:01:58;161.38;;;77.25;;
28796;SDS011;24974;54.444;18.560;2023-02-15T23:04:30;169.63;;;82.43;;
28796;SDS011;24974;54.444;18.560;2023-02-15T23:07:01;160.40;;;77.95;;
28796;SDS011;24974;54.444;18.560;2023-02-15T23:09:35;156.57;;;75.97;;
28796;SDS011;24974;54.444;18.560;2023-02-15T23:12:25;172.95;;;82.65;;
28796;SDS011;24974;54.444;18.560;2023-02-15T23:15:23;165.70;;;77.30;;
28796;SDS011;24974;54.444;18.560;2023-02-15T23:17:54;171.60;;;83.15;;
28796;SDS011;24974;54.444;18.560;2023-02-15T23:20:25;170.15;;;82.63;;
28796;SDS011;24974;54.444;18.560;2023-02-15T23:22:56;170.80;;;80.50;;
28796;SDS011;24974;54.444;18.560;2023-02-15T23:25:27;166.90;;;79.82;;
28796;SDS011;24974;54.444;18.560;2023-02-15T23:27:58;178.13;;;84.90;;
28796;SDS011;24974;54.444;18.560;2023-02-15T23:30:28;150.45;;;71.25;;
28796;SDS011;24974;54.444;18.560;2023-02-15T23:32:59;168.75;;;74.97;;
28796;SDS011;24974;54.444;18.560;2023-02-15T23:35:30;170.40;;;79.57;;
28796;SDS011;24974;54.444;18.560;2023-02-15T23:38:01;171.88;;;83.38;;
28796;SDS011;24974;54.444;18.560;2023-02-15T23:40:32;177.07;;;84.18;;